Time;durP1;ratioP1;P1;durP2;ratioP2;P2;SDS_P1;SDS_P2;PMS_P1;PMS_P2;Temp;Humidity;BMP_temperature;BMP_pressure;BME280_temperature;BME280_humidity;BME280_pressure;Samples;Min_cycle;Max_cycle;Signal;HPM_P1;HPM_P2
2022/01/09 00:00:14;;;;;;;76.40;36.45;;;;;;;1.29;76.07;99838.44;1629515;86;26587;-78
2022/01/09 00:02:44;;;;;;;80.20;38.70;;;;;;;1.28;76.06;99833.64;1627890;86;26117;-78
2022/01/09 00:05:12;;;;;;;80.85;39.75;;;;;;;1.27;76.07;99830.68;1627836;87;27466;-78
2022/01/09 00:07:39;;;;;;;77.67;38.70;;;;;;;1.28;76.15;99834.96;1623375;86;26362;-78
2022/01/09 00:10:07;;;;;;;80.95;39.70;;;;;;;1.30;76.17;99836.16;1630479;86;25672;-78
2022/01/09 00:12:34;;;;;;;73.52;36.65;;;;;;;1.30;76.18;99833.03;1636582;86;25934;-78
2022/01/09 00:15:01;;;;;;;83.60;39.42;;;;;;;1.30;76.25;99830.88;1638613;86;26382;-78
2022/01/09 00:17:27;;;;;;;79.40;37.33;;;;;;;1.31;76.24;99825.93;1634130;86;28119;-78
2022/01/09 00:19:54;;;;;;;74.00;37.38;;;;;;;1.31;76.39;99825.45;1640450;86;26588;-78
2022/01/09 00:22:29;;;;;;;72.05;35.58;;;;;;;1.30;76.28;99825.60;1638950;86;25962;-78
2022/01/09 00:24:48;;;;;;;70.65;36.03;;;;;;;1.28;76.25;99824.92;1633845;86;25876;-78
2022/01/09 00:27:14;;;;;;;72.53;35.08;;;;;;;1.29;76.34;99824.77;1622491;86;25852;-78
2022/01/09 00:29:41;;;;;;;76.60;37.93;;;;;;;1.30;76.38;99816.38;1635279;86;28383;-78
2022/01/09 00:32:07;;;;;;;73.35;37.10;;;;;;;1.31;76.44;99818.02;1629871;86;26267;-78
2022/01/09 00:34:33;;;;;;;75.75;36.40;;;;;;;1.32;76.40;99806.02;1641283;86;26674;-78
2022/01/09 00:36:59;;;;;;;71.60;36.10;;;;;;;;;;1634461;86;25861;-79
2022/01/09 00:39:25;;;;;;;73.42;36.25;;;;;;;1.29;76.40;99803.66;1634425;86;25773;-78
2022/01/09 00:41:52;;;;;;;78.90;36.95;;;;;;;1.30;76.48;99799.22;1640456;86;28294;-78
2022/01/09 00:44:18;;;;;;;71.42;37.38;;;;;;;1.29;76.46;99801.50;1635358;86;25791;-79
2022/01/09 00:46:44;;;;;;;71.05;35.75;;;;;;;1.29;76.46;99799.70;1638003;86;25764;-78
2022/01/09 00:49:10;;;;;;;70.80;35.73;;;;;;;1.29;76.50;99799.70;1635048;86;26506;-78
2022/01/09 00:51:36;;;;;;;71.55;35.70;;;;;;;1.29;76.39;99792.27;1637192;86;25908;-78
2022/01/09 00:54:03;;;;;;;68.07;36.40;;;;;;;1.27;76.38;99784.52;1638143;86;28254;-78
2022/01/09 00:56:29;;;;;;;67.75;36.48;;;;;;;1.27;76.46;99782.36;1640411;86;26527;-78
2022/01/09 00:58:55;;;;;;;70.55;36.10;;;;;;;1.25;76.46;99777.23;1627859;86;25815;-78
2022/01/09 01:01:21;;;;;;;72.60;36.83;;;;;;;1.26;76.55;99769.65;1634202;86;25936;-78
2022/01/09 01:03:47;;;;;;;71.70;35.35;;;;;;;1.24;76.50;99764.20;1639800;86;25805;-78
2022/01/09 01:06:14;;;;;;;74.72;36.58;;;;;;;1.22;76.46;99764.33;1637024;86;27465;-78
2022/01/09 01:08:40;;;;;;;71.70;38.28;;;;;;;1.20;76.55;99759.70;1637740;86;26436;-79
2022/01/09 01:11:06;;;;;;;77.12;36.08;;;;;;;1.18;76.50;99752.42;1643246;86;25763;-77
2022/01/09 01:13:32;;;;;;;74.65;36.65;;;;;;;1.17;76.57;99750.78;1627644;86;26060;-78
2022/01/09 01:15:59;;;;;;;72.78;36.50;;;;;;;1.16;76.55;99750.42;1635625;86;25979;-78
2022/01/09 01:18:25;;;;;;;78.28;36.05;;;;;;;1.15;76.61;99742.18;1640192;86;27549;-79
2022/01/09 01:20:51;;;;;;;73.15;36.98;;;;;;;1.13;76.53;99745.45;1647921;86;26531;-78
2022/01/09 01:23:18;;;;;;;71.87;35.65;;;;;;;1.11;76.64;99738.66;1640464;86;26087;-78
2022/01/09 01:25:50;;;;;;;71.77;37.10;;;;;;;1.11;76.71;99738.66;1628315;86;26606;-78
2022/01/09 01:28:12;;;;;;;74.97;36.85;;;;;;;1.11;76.79;99731.56;1625876;86;25752;-78
2022/01/09 01:30:38;;;;;;;81.97;37.48;;;;;;;1.12;76.77;99731.08;1636540;86;28356;-78
2022/01/09 01:33:04;;;;;;;74.32;37.65;;;;;;;1.06;76.74;99736.95;1639557;86;25905;-79
2022/01/09 01:35:31;;;;;;;83.33;39.35;;;;;;;1.03;76.71;99730.63;1625139;86;25796;-79
2022/01/09 01:37:57;;;;;;;86.05;39.80;;;;;;;1.01;76.72;99729.47;1627179;87;25787;-78
2022/01/09 01:40:23;;;;;;;74.15;38.55;;;;;;;0.94;76.76;99723.12;1626080;86;25958;-78
2022/01/09 01:42:49;;;;;;;85.17;37.30;;;;;;;0.93;76.88;99721.95;1627788;86;27699;-78
2022/01/09 01:45:16;;;;;;;71.72;37.90;;;;;;;0.91;76.84;99716.00;1624692;86;26527;-78
2022/01/09 01:47:43;;;;;;;77.82;37.83;;;;;;;0.86;76.69;99708.53;1622916;86;26043;-78
2022/01/09 01:50:13;;;;;;;75.85;37.75;;;;;;;0.83;76.81;99718.55;1627704;86;26651;-79
2022/01/09 01:52:44;;;;;;;82.60;41.00;;;;;;;0.79;76.87;99712.75;1628365;86;25855;-79
2022/01/09 01:55:12;;;;;;;85.38;39.48;;;;;;;0.76;76.74;99708.59;1631581;86;28468;-78
2022/01/09 01:57:41;;;;;;;72.90;37.03;;;;;;;0.71;76.78;99704.23;1633535;86;25820;-78
2022/01/09 02:00:12;;;;;;;71.90;35.98;;;;;;;0.68;76.70;99697.93;1629598;86;25771;-78
2022/01/09 02:02:39;;;;;;;73.62;36.23;;;;;;;0.65;76.75;99696.09;1634056;86;25878;-78
2022/01/09 02:05:07;;;;;;;77.60;38.40;;;;;;;0.62;76.84;99699.84;1635689;86;25835;-78
2022/01/09 02:07:34;;;;;;;77.90;37.30;;;;;;;0.59;76.78;99697.99;1629092;86;28275;-78
2022/01/09 02:10:00;;;;;;;79.35;37.25;;;;;;;0.53;76.86;99690.67;1635254;86;25872;-79
2022/01/09 02:12:26;;;;;;;79.05;38.40;;;;;;;0.51;76.84;99694.75;1642667;86;25848;-79
2022/01/09 02:14:53;;;;;;;74.95;38.23;;;;;;;0.46;76.87;99691.73;1642062;86;26623;-78
2022/01/09 02:17:21;;;;;;;73.42;36.42;;;;;;;0.45;76.97;99690.06;1633946;86;25931;-79
2022/01/09 02:19:55;;;;;;;68.02;36.10;;;;;;;0.45;76.94;99687.43;1630484;86;27550;-78
2022/01/09 02:22:24;;;;;;;72.47;36.70;;;;;;;0.42;76.90;99685.58;1637418;86;25781;-77
2022/01/09 02:24:52;;;;;;;76.97;36.13;;;;;;;0.38;76.92;99679.78;1636340;86;25742;-79
2022/01/09 02:27:18;;;;;;;85.05;38.90;;;;;;;0.38;76.97;99681.58;1632267;86;26659;-79
2022/01/09 02:29:46;;;;;;;82.05;37.40;;;;;;;0.38;77.04;99685.05;1637775;86;25302;-78
2022/01/09 02:32:16;;;;;;;69.40;35.73;;;;;;;0.40;76.98;99688.84;1635026;86;27483;-78
2022/01/09 02:34:50;;;;;;;73.85;35.65;;;;;;;0.37;76.81;99687.33;1625713;86;25994;-79
2022/01/09 02:37:16;;;;;;;73.30;36.42;;;;;;;0.36;76.85;99689.63;1632058;86;25323;-79
2022/01/09 02:39:43;;;;;;;83.50;34.27;;;;;;;0.35;76.89;99680.54;1628250;86;26124;-79
2022/01/09 02:42:26;;;;;;;71.00;35.68;;;;;;;0.35;76.92;99682.69;1641283;86;25864;-78
2022/01/09 02:44:52;;;;;;;68.20;32.88;;;;;;;0.35;76.95;99681.85;1634708;86;27488;-78
2022/01/09 02:47:20;;;;;;;69.42;34.73;;;;;;;0.35;76.99;99670.84;1633550;86;25881;-78
2022/01/09 02:49:50;;;;;;;66.60;35.25;;;;;;;0.33;76.90;99671.47;1639376;86;25865;-78
2022/01/09 02:52:35;;;;;;;69.65;35.28;;;;;;;0.34;76.96;99669.67;1636188;86;25800;-79
2022/01/09 02:55:14;;;;;;;72.35;34.50;;;;;;;0.34;76.88;99673.12;1636561;86;25999;-79
2022/01/09 02:57:32;;;;;;;;;;;;;;;0.34;77.02;99670.48;1629260;86;27493;-78
2022/01/09 02:59:59;;;;;;;74.75;35.60;;;;;;;0.34;76.94;99670.48;1628665;86;26292;-78
2022/01/09 03:02:25;;;;;;;68.65;34.75;;;;;;;0.31;76.99;99672.59;1633170;86;25830;-78
2022/01/09 03:04:52;;;;;;;78.87;38.80;;;;;;;0.31;76.96;99673.91;1630791;86;25996;-78
2022/01/09 03:07:18;;;;;;;84.07;37.05;;;;;;;0.30;77.00;99666.99;1634720;86;25770;-77
2022/01/09 03:09:44;;;;;;;77.25;37.03;;;;;;;0.31;77.11;99669.95;1639094;86;27458;-79
2022/01/09 03:12:11;;;;;;;70.28;37.53;;;;;;;0.33;77.16;99673.27;1635079;86;25366;-78
2022/01/09 03:14:38;;;;;;;74.42;36.98;;;;;;;0.33;77.22;99665.37;1629054;86;26450;-78
2022/01/09 03:17:04;;;;;;;76.67;37.03;;;;;;;0.31;77.17;99661.57;1627217;86;25848;-79
2022/01/09 03:19:30;;;;;;;79.50;38.20;;;;;;;0.29;77.30;99656.94;1631453;86;26669;-79
2022/01/09 03:21:56;;;;;;;73.80;36.38;;;;;;;0.29;77.30;99650.35;1628538;86;28357;-78
2022/01/09 03:24:22;;;;;;;77.50;38.20;;;;;;;0.28;77.37;99651.82;1634893;86;25890;-78
2022/01/09 03:26:49;;;;;;;75.12;38.17;;;;;;;0.28;77.48;99643.41;1627529;86;25791;-78
2022/01/09 03:29:15;;;;;;;78.62;36.20;;;;;;;0.29;77.51;99643.77;1633593;86;26531;-78
2022/01/09 03:31:41;;;;;;;73.10;36.93;;;;;;;0.29;77.50;99650.35;1638841;86;25869;-78
2022/01/09 03:34:08;;;;;;;75.12;38.45;;;;;;;0.29;77.60;99646.88;1639684;85;27476;-78
2022/01/09 03:36:34;;;;;;;76.82;38.15;;;;;;;0.28;77.59;99644.73;1635144;86;25858;-79
2022/01/09 03:39:00;;;;;;;70.30;36.30;;;;;;;0.27;77.52;99655.41;1640412;86;25893;-78
2022/01/09 03:41:28;;;;;;;80.80;37.78;;;;;;;0.26;77.45;99653.74;1634369;86;26475;-79
2022/01/09 03:43:55;;;;;;;74.72;39.38;;;;;;;0.22;77.42;99651.89;1630089;86;25926;-79
2022/01/09 03:46:21;;;;;;;75.83;37.55;;;;;;;0.21;77.46;99655.52;1639226;86;27538;-79
2022/01/09 03:48:47;;;;;;;78.02;38.67;;;;;;;0.18;77.49;99649.69;1632022;86;25741;-78
2022/01/09 03:51:13;;;;;;;79.10;40.03;;;;;;;0.15;77.68;99654.75;1632202;86;26434;-78
2022/01/09 03:53:40;;;;;;;83.82;39.92;;;;;;;0.16;77.87;99656.42;1629696;86;25798;-78
2022/01/09 03:56:06;;;;;;;76.40;39.18;;;;;;;0.20;77.97;99655.64;1631365;86;25575;-79
2022/01/09 03:58:35;;;;;;;74.32;38.55;;;;;;;0.18;77.98;99651.01;1635449;86;27464;-78
2022/01/09 04:01:01;;;;;;;81.02;39.78;;;;;;;0.17;78.02;99648.05;1639920;86;26501;-78
2022/01/09 04:03:27;;;;;;;80.50;40.88;;;;;;;0.18;78.16;99643.95;1637087;86;26548;-78
2022/01/09 04:05:54;;;;;;;86.08;42.50;;;;;;;0.21;78.14;99644.98;1635294;86;25875;-79
2022/01/09 04:08:20;;;;;;;84.58;44.45;;;;;;;0.20;78.04;99647.27;1636058;86;25860;-79
2022/01/09 04:10:50;;;;;;;76.77;38.92;;;;;;;0.19;78.03;99636.88;1633843;86;28293;-78
2022/01/09 04:13:15;;;;;;;70.32;36.88;;;;;;;0.19;77.91;99633.77;1633636;86;26026;-78
2022/01/09 04:15:49;;;;;;;71.10;35.00;;;;;;;0.19;77.82;99633.77;1639121;86;25776;-78
2022/01/09 04:18:18;;;;;;;68.37;35.60;;;;;;;0.17;77.60;99633.56;1636644;86;25944;-78
2022/01/09 04:20:46;;;;;;;69.05;31.80;;;;;;;0.14;77.62;99632.52;1635474;86;25869;-78
2022/01/09 04:23:13;;;;;;;68.60;34.15;;;;;;;0.14;77.45;99633.84;1642201;86;27566;-78
2022/01/09 04:25:43;;;;;;;71.02;34.00;;;;;;;0.12;77.43;99626.09;1624995;86;26494;-79
2022/01/09 04:28:13;;;;;;;68.17;33.55;;;;;;;0.11;77.31;99628.37;1632913;86;25346;-78
2022/01/09 04:30:40;;;;;;;70.12;34.63;;;;;;;0.11;77.30;99624.93;1640035;86;25935;-78
2022/01/09 04:33:08;;;;;;;73.15;36.25;;;;;;;0.09;77.15;99623.73;1629160;87;25380;-78
2022/01/09 04:35:35;;;;;;;80.47;36.45;;;;;;;0.07;77.12;99624.84;1629483;87;27533;-79
2022/01/09 04:38:01;;;;;;;72.27;34.10;;;;;;;0.04;77.12;99623.84;1629543;87;25800;-79
2022/01/09 04:40:28;;;;;;;67.08;34.83;;;;;;;0.00;77.14;99624.11;1629321;87;26543;-78
2022/01/09 04:42:58;;;;;;;75.97;34.55;;;;;;;-0.02;77.16;99627.37;1629394;87;26496;-79
2022/01/09 04:45:24;;;;;;;74.95;34.98;;;;;;;-0.02;77.10;99621.27;1629206;86;25920;-78
2022/01/09 04:47:52;;;;;;;75.92;35.68;;;;;;;-0.04;77.09;99615.33;1629404;87;28581;-78
2022/01/09 04:50:29;;;;;;;78.55;37.58;;;;;;;-0.06;77.07;99608.06;1629469;87;25356;-79
2022/01/09 04:52:58;;;;;;;77.97;36.25;;;;;;;-0.08;76.93;99614.80;1627754;87;25884;-78
2022/01/09 04:55:21;;;;;;;70.97;34.88;;;;;;;-0.11;76.96;99608.48;1629006;87;26016;-77
2022/01/09 04:57:48;;;;;;;79.67;39.53;;;;;;;-0.11;76.95;99610.31;1629733;87;26490;-78
2022/01/09 05:00:14;;;;;;;81.65;37.25;;;;;;;-0.14;76.89;99614.05;1629204;87;27450;-78
2022/01/09 05:02:40;;;;;;;81.67;38.42;;;;;;;-0.16;76.91;99604.64;1629062;87;25328;-79
2022/01/09 05:05:09;;;;;;;79.87;37.42;;;;;;;-0.18;76.96;99606.58;1629606;87;25863;-78
2022/01/09 05:07:37;;;;;;;80.35;36.98;;;;;;;-0.19;76.96;99600.96;1629257;87;26559;-78
2022/01/09 05:10:09;;;;;;;78.97;38.17;;;;;;;-0.20;76.93;99610.69;1629498;87;25909;-79
2022/01/09 05:12:36;;;;;;;78.52;37.93;;;;;;;-0.22;76.92;99610.48;1629094;87;28449;-78
2022/01/09 05:15:06;;;;;;;83.58;39.35;;;;;;;-0.25;76.86;99604.17;1629476;87;25580;-79
2022/01/09 05:17:32;;;;;;;76.53;36.15;;;;;;;-0.26;76.89;99611.73;1629683;87;25833;-79
2022/01/09 05:19:59;;;;;;;75.37;37.95;;;;;;;-0.32;76.74;99613.11;1626488;87;26352;-78
2022/01/09 05:22:28;;;;;;;76.85;38.28;;;;;;;-0.36;76.78;99610.91;1628752;87;25801;-79
2022/01/09 05:24:58;;;;;;;80.77;37.75;;;;;;;-0.37;76.84;99602.69;1629096;87;27671;-79
2022/01/09 05:27:25;;;;;;;72.75;35.38;;;;;;;-0.39;76.78;99598.89;1629689;87;26214;-78
2022/01/09 05:29:51;;;;;;;74.67;37.23;;;;;;;-0.40;76.78;99608.22;1629347;87;25942;-77
2022/01/09 05:32:19;;;;;;;77.25;38.40;;;;;;;-0.41;76.79;99600.00;1629093;87;26990;-78
2022/01/09 05:34:46;;;;;;;81.17;39.92;;;;;;;-0.42;76.73;99606.21;1629237;87;25795;-78
2022/01/09 05:37:12;;;;;;;83.70;39.48;;;;;;;-0.46;76.71;99607.00;1629081;87;28346;-79
2022/01/09 05:39:38;;;;;;;92.72;39.63;;;;;;;-0.47;76.75;99609.77;1625375;86;25403;-79
2022/01/09 05:42:09;;;;;;;88.65;39.90;;;;;;;-0.47;76.80;99613.21;1620273;87;25840;-79
2022/01/09 05:44:35;;;;;;;82.15;41.13;;;;;;;-0.49;76.79;99611.20;1610872;87;26521;-78
2022/01/09 05:47:03;;;;;;;97.20;44.93;;;;;;;-0.52;76.76;99605.41;1625046;87;25894;-79
2022/01/09 05:49:30;;;;;;;88.62;44.13;;;;;;;-0.54;76.85;99603.41;1622830;87;27569;-78
2022/01/09 05:51:56;;;;;;;96.85;48.45;;;;;;;-0.57;76.84;99597.94;1614230;87;25924;-79
2022/01/09 05:54:23;;;;;;;98.78;47.60;;;;;;;-0.62;76.87;99600.66;1618118;86;25808;-79
2022/01/09 05:56:51;;;;;;;94.40;45.98;;;;;;;-0.68;77.05;99602.03;1620997;87;26479;-78
2022/01/09 05:59:18;;;;;;;92.55;45.38;;;;;;;-0.69;77.12;99600.86;1619976;87;26172;-78
2022/01/09 06:01:45;;;;;;;89.90;43.10;;;;;;;-0.72;77.22;99597.19;1624538;87;28280;-78
2022/01/09 06:04:12;;;;;;;92.88;41.80;;;;;;;-0.82;77.30;99592.78;1623511;87;25852;-78
2022/01/09 06:06:38;;;;;;;87.70;40.98;;;;;;;-0.83;77.27;99592.42;1616862;87;25947;-78
2022/01/09 06:09:05;;;;;;;94.85;42.38;;;;;;;-0.84;77.40;99596.52;1623174;87;25823;-77
2022/01/09 06:11:31;;;;;;;87.35;41.35;;;;;;;-0.87;77.45;99596.78;1616679;87;26063;-78
2022/01/09 06:13:57;;;;;;;90.72;44.03;;;;;;;-0.93;77.51;99592.92;1621497;87;28254;-79
2022/01/09 06:16:24;;;;;;;86.60;41.70;;;;;;;-0.97;77.68;99594.64;1626681;87;25848;-79
2022/01/09 06:18:50;;;;;;;90.57;41.33;;;;;;;-0.99;77.68;99592.64;1620544;87;25855;-78
2022/01/09 06:21:16;;;;;;;92.90;42.93;;;;;;;-1.02;77.89;99595.53;1618593;87;25875;-78
2022/01/09 06:23:42;;;;;;;97.30;44.27;;;;;;;-1.03;77.91;99600.46;1621741;87;25898;-77
2022/01/09 06:26:09;;;;;;;94.00;43.87;;;;;;;-1.07;77.98;99592.00;1618589;87;27723;-79
2022/01/09 06:28:35;;;;;;;104.32;45.15;;;;;;;-1.09;77.88;99587.88;1619188;87;25792;-78
2022/01/09 06:31:01;;;;;;;102.90;50.58;;;;;;;-1.11;77.99;99593.75;1614909;87;25820;-78
2022/01/09 06:33:27;;;;;;;101.82;48.02;;;;;;;-1.10;78.14;99599.34;1605344;87;26707;-78
2022/01/09 06:35:54;;;;;;;108.20;48.20;;;;;;;-1.09;78.20;99595.76;1610483;87;26296;-78
2022/01/09 06:38:20;;;;;;;105.90;48.55;;;;;;;-1.13;78.29;99591.24;1610901;86;27481;-79
2022/01/09 06:40:46;;;;;;;101.62;46.75;;;;;;;-1.13;78.31;99593.03;1622831;87;25351;-78
2022/01/09 06:43:12;;;;;;;95.67;44.80;;;;;;;-1.16;78.31;99596.79;1617663;87;25874;-79
2022/01/09 06:45:38;;;;;;;99.72;46.00;;;;;;;-1.17;78.37;99596.43;1619982;87;25931;-78
2022/01/09 06:48:05;;;;;;;94.87;47.78;;;;;;;-1.19;78.51;99600.16;1612827;88;25800;-78
2022/01/09 06:50:32;;;;;;;106.30;50.20;;;;;;;-1.21;78.54;99601.61;1617556;87;27461;-79
2022/01/09 06:52:58;;;;;;;105.37;45.28;;;;;;;-1.23;78.62;99607.49;1623142;87;25703;-78
2022/01/09 06:55:25;;;;;;;117.50;52.25;;;;;;;-1.27;78.57;99606.11;1617896;88;25939;-78
2022/01/09 06:57:53;;;;;;;130.10;53.25;;;;;;;-1.30;78.64;99607.67;1617631;88;26083;-78
2022/01/09 07:00:20;;;;;;;125.35;52.55;;;;;;;-1.30;78.73;99611.62;1618043;88;26591;-80
2022/01/09 07:02:46;;;;;;;133.03;56.53;;;;;;;-1.29;78.75;99616.39;1617238;88;28317;-78
2022/01/09 07:05:14;;;;;;;119.85;51.92;;;;;;;-1.30;78.78;99622.60;1617522;88;26041;-78
2022/01/09 07:07:40;;;;;;;105.22;47.88;;;;;;;-1.33;78.85;99625.04;1617394;88;25879;-78
2022/01/09 07:10:08;;;;;;;95.10;44.20;;;;;;;-1.30;79.01;99630.48;1617613;88;26154;-78
2022/01/09 07:12:35;;;;;;;86.63;39.27;;;;;;;-1.29;78.98;99635.63;1617304;88;25999;-79
2022/01/09 07:15:04;;;;;;;91.22;40.85;;;;;;;-1.32;78.97;99638.50;1617975;88;27655;-79
2022/01/09 07:17:30;;;;;;;82.15;41.98;;;;;;;-1.30;79.06;99637.05;1622572;87;25899;-78
2022/01/09 07:19:56;;;;;;;76.77;39.03;;;;;;;-1.32;78.97;99632.41;1616254;87;25796;-78
2022/01/09 07:22:23;;;;;;;83.50;40.20;;;;;;;-1.35;78.98;99631.39;1626039;87;26649;-79
2022/01/09 07:24:49;;;;;;;84.32;40.73;;;;;;;-1.36;79.28;99631.87;1624197;87;25587;-78
2022/01/09 07:27:15;;;;;;;86.15;41.25;;;;;;;-1.37;79.34;99634.64;1622759;87;28367;-78
2022/01/09 07:29:41;;;;;;;90.60;44.13;;;;;;;-1.36;79.40;99630.55;1625748;87;25820;-78
2022/01/09 07:32:08;;;;;;;88.92;43.28;;;;;;;-1.33;79.43;99633.40;1625350;87;25334;-78
2022/01/09 07:34:34;;;;;;;96.75;43.60;;;;;;;-1.35;79.48;99630.91;1626037;87;25887;-80
2022/01/09 07:37:00;;;;;;;140.75;66.37;;;;;;;-1.34;79.82;99630.41;1620600;87;26023;-78
2022/01/09 07:39:28;;;;;;;147.78;75.03;;;;;;;-1.33;79.75;99629.45;1616423;87;27527;-79
2022/01/09 07:41:57;;;;;;;157.50;74.82;;;;;;;-1.40;79.81;99620.45;1622202;87;26155;-79
2022/01/09 07:44:24;;;;;;;181.67;98.12;;;;;;;-1.32;79.81;99637.19;1620043;87;25962;-78
2022/01/09 07:46:50;;;;;;;154.23;85.75;;;;;;;-1.33;79.82;99628.98;1620683;87;26600;-78
2022/01/09 07:49:17;;;;;;;99.92;55.98;;;;;;;-1.31;79.89;99631.46;1623113;87;25897;-78
2022/01/09 07:51:44;;;;;;;85.72;43.68;;;;;;;-1.28;79.98;99633.83;1626005;87;27487;-79
2022/01/09 07:54:11;;;;;;;111.05;61.15;;;;;;;-1.25;80.14;99632.23;1620279;87;25828;-79
2022/01/09 07:56:37;;;;;;;99.60;51.77;;;;;;;-1.24;80.10;99632.09;1625798;87;25962;-78
2022/01/09 07:59:03;;;;;;;85.57;44.50;;;;;;;-1.22;80.06;99630.16;1624537;87;26002;-78
2022/01/09 08:01:29;;;;;;;85.90;41.35;;;;;;;-1.20;80.12;99632.19;1618467;87;25783;-78
2022/01/09 08:03:55;;;;;;;80.62;40.25;;;;;;;-1.16;80.14;99636.68;1613187;87;27582;-77
2022/01/09 08:06:22;;;;;;;112.40;60.58;;;;;;;-1.14;80.15;99643.47;1622553;87;26490;-78
2022/01/09 08:08:48;;;;;;;83.55;43.52;;;;;;;-1.12;80.14;99637.59;1623228;87;26004;-78
2022/01/09 08:11:16;;;;;;;83.78;39.83;;;;;;;-1.08;80.01;99640.77;1621467;87;26638;-79
2022/01/09 08:13:43;;;;;;;88.45;40.58;;;;;;;-1.06;80.01;99639.66;1618975;87;26481;-81
2022/01/09 08:16:09;;;;;;;84.92;40.28;;;;;;;-1.01;80.00;99637.95;1622603;87;27483;-81
2022/01/09 08:18:35;;;;;;;89.17;43.10;;;;;;;-1.01;80.12;99641.41;1618411;87;25967;-78
2022/01/09 08:21:01;;;;;;;91.32;43.38;;;;;;;-0.99;79.99;99645.20;1616266;87;26536;-79
2022/01/09 08:23:28;;;;;;;96.15;44.13;;;;;;;-0.96;80.01;99643.13;1620941;87;25861;-78
2022/01/09 08:25:56;;;;;;;94.03;42.45;;;;;;;-0.93;79.98;99638.92;1617628;87;26209;-79
2022/01/09 08:28:22;;;;;;;86.55;40.35;;;;;;;-0.89;80.06;99641.62;1618270;87;27581;-78
2022/01/09 08:30:48;;;;;;;82.22;39.75;;;;;;;-0.85;80.02;99644.31;1624765;87;25662;-79
2022/01/09 08:33:14;;;;;;;95.65;50.90;;;;;;;-0.83;80.01;99650.73;1624665;87;26518;-78
2022/01/09 08:35:41;;;;;;;86.45;41.08;;;;;;;-0.83;79.86;99651.58;1624786;87;25785;-79
2022/01/09 08:38:07;;;;;;;86.32;42.08;;;;;;;-0.80;79.79;99648.69;1622463;88;26130;-78
2022/01/09 08:40:33;;;;;;;79.50;39.23;;;;;;;-0.75;79.97;99640.39;1619567;87;28163;-79
2022/01/09 08:42:59;;;;;;;79.90;35.85;;;;;;;-0.70;80.03;99653.09;1615965;87;26460;-79
2022/01/09 08:45:26;;;;;;;78.57;35.43;;;;;;;-0.66;79.91;99646.61;1616793;87;25863;-78
2022/01/09 08:47:52;;;;;;;79.00;35.90;;;;;;;-0.61;79.97;99649.16;1623749;87;26406;-78
2022/01/09 08:50:20;;;;;;;83.17;39.13;;;;;;;-0.55;79.75;99649.07;1626474;87;25877;-78
2022/01/09 08:52:47;;;;;;;89.03;39.18;;;;;;;-0.50;79.72;99646.87;1624684;87;27570;-78
2022/01/09 08:55:13;;;;;;;89.58;40.95;;;;;;;-0.42;79.66;99650.45;1622834;87;25619;-78
2022/01/09 08:57:40;;;;;;;89.32;39.85;;;;;;;-0.37;79.55;99648.73;1623709;87;25886;-79
2022/01/09 09:00:08;;;;;;;78.37;38.23;;;;;;;-0.34;79.42;99646.63;1614758;87;25845;-78
2022/01/09 09:02:34;;;;;;;82.90;40.73;;;;;;;-0.29;79.33;99649.68;1620655;87;25960;-77
2022/01/09 09:05:00;;;;;;;85.05;39.00;;;;;;;-0.24;79.17;99650.58;1622075;86;27561;-78
2022/01/09 09:07:27;;;;;;;99.40;44.30;;;;;;;-0.20;79.17;99651.95;1620350;86;25967;-78
2022/01/09 09:09:53;;;;;;;93.58;43.83;;;;;;;-0.15;79.09;99652.37;1627168;86;25840;-82
2022/01/09 09:12:20;;;;;;;82.47;38.75;;;;;;;-0.11;78.98;99640.58;1621874;86;26120;-79
2022/01/09 09:14:46;;;;;;;91.75;45.85;;;;;;;-0.09;78.73;99635.52;1620692;87;25744;-84
2022/01/09 09:17:13;;;;;;;101.33;52.23;;;;;;;-0.04;78.72;99638.53;1619469;86;27550;-82
2022/01/09 09:19:40;;;;;;;86.35;43.25;;;;;;;0.00;78.47;99637.78;1595356;88;26036;-81
2022/01/09 09:22:06;;;;;;;103.05;50.30;;;;;;;0.04;78.50;99635.69;1619551;87;25899;-83
2022/01/09 09:24:32;;;;;;;101.22;45.88;;;;;;;0.09;78.52;99636.91;1625344;86;26635;-82
2022/01/09 09:26:59;;;;;;;91.42;43.02;;;;;;;0.13;78.26;99635.64;1623770;86;26464;-81
2022/01/09 09:29:26;;;;;;;90.62;43.90;;;;;;;0.19;78.23;99631.62;1625419;88;27482;-81
2022/01/09 09:31:52;;;;;;;77.53;38.45;;;;;;;0.23;78.02;99629.87;1623571;87;25909;-80
2022/01/09 09:34:18;;;;;;;77.03;37.98;;;;;;;0.27;78.11;99623.33;1625207;87;25471;-78
2022/01/09 09:36:44;;;;;;;83.30;40.20;;;;;;;0.31;77.74;99626.50;1623163;87;25820;-78
2022/01/09 09:39:12;;;;;;;84.85;39.23;;;;;;;0.34;77.68;99626.22;1624017;88;26632;-81
2022/01/09 09:41:41;;;;;;;93.35;40.50;;;;;;;0.39;77.58;99630.54;1623955;87;27498;-82
2022/01/09 09:44:09;;;;;;;75.22;37.20;;;;;;;0.42;77.50;99624.52;1619139;87;26853;-82
2022/01/09 09:46:36;;;;;;;81.22;38.50;;;;;;;0.46;77.56;99625.88;1622416;88;25579;-82
2022/01/09 09:49:04;;;;;;;79.85;37.10;;;;;;;0.50;77.60;99627.23;1625488;87;25791;-77
2022/01/09 09:51:31;;;;;;;96.75;54.10;;;;;;;0.57;77.42;99624.37;1619351;87;25870;-77
2022/01/09 09:53:58;;;;;;;82.10;43.70;;;;;;;0.61;77.17;99627.05;1618648;87;27568;-77
2022/01/09 09:56:25;;;;;;;85.75;43.33;;;;;;;0.65;77.02;99620.50;1618180;87;25826;-77
2022/01/09 09:58:52;;;;;;;93.78;54.00;;;;;;;0.69;77.02;99615.75;1620720;87;25963;-77
2022/01/09 10:01:30;;;;;;;92.30;45.67;;;;;;;0.73;77.09;99617.95;1617494;87;25916;-76
2022/01/09 10:04:00;;;;;;;103.65;60.88;;;;;;;0.78;76.93;99620.14;1622850;87;25963;-77
2022/01/09 10:06:46;;;;;;;103.45;59.13;;;;;;;0.81;76.87;99614.59;1614875;87;27531;-77
2022/01/09 10:09:18;;;;;;;96.72;50.00;;;;;;;0.87;77.02;99617.10;1622202;86;26092;-76
2022/01/09 10:12:04;;;;;;;106.43;52.05;;;;;;;0.92;77.04;99613.03;1621899;87;25782;-77
2022/01/09 10:14:31;;;;;;;105.60;58.02;;;;;;;0.97;76.97;99614.73;1618933;87;26662;-77
2022/01/09 10:17:24;;;;;;;118.82;65.65;;;;;;;1.00;76.59;99609.18;1619403;87;26611;-77
2022/01/09 10:19:52;;;;;;;128.53;69.03;;;;;;;1.04;76.53;99612.33;1620551;87;27505;-77
2022/01/09 10:22:44;;;;;;;91.37;45.55;;;;;;;1.07;76.50;99612.05;1616627;88;26307;-77
2022/01/09 10:25:32;;;;;;;100.62;54.40;;;;;;;1.10;76.55;99609.09;1625653;87;25855;-77
2022/01/09 10:28:13;;;;;;;90.55;41.63;;;;;;;1.15;76.46;99614.75;1624618;87;26577;-77
2022/01/09 10:30:42;;;;;;;;;;;;;;;1.17;76.36;99612.31;1621172;87;25784;-77
2022/01/09 10:33:13;;;;;;;78.33;43.45;;;;;;;1.19;76.11;99602.91;1622171;86;26917;-77
2022/01/09 10:35:42;;;;;;;75.15;42.73;;;;;;;1.20;76.22;99598.80;1621030;87;25862;-77
2022/01/09 10:38:16;;;;;;;76.10;41.33;;;;;;;1.24;76.34;99597.52;1620441;87;25859;-77
2022/01/09 10:40:49;;;;;;;66.97;33.42;;;;;;;1.28;76.34;99597.54;1624873;87;25864;-77
2022/01/09 10:43:21;;;;;;;66.12;32.25;;;;;;;1.32;76.26;99594.97;1619991;87;26145;-77
2022/01/09 10:45:58;;;;;;;71.60;35.52;;;;;;;1.36;76.37;99595.48;1620393;87;27667;-78
2022/01/09 10:48:23;;;;;;;75.42;34.92;;;;;;;1.40;76.45;99594.19;1622861;86;25749;-78
2022/01/09 10:50:52;;;;;;;77.80;40.75;;;;;;;1.46;76.50;99592.25;1617961;87;25827;-77
2022/01/09 10:53:29;;;;;;;71.85;35.58;;;;;;;1.51;76.62;99584.71;1621547;87;26381;-80
2022/01/09 10:56:09;;;;;;;79.72;41.28;;;;;;;1.54;76.63;99583.91;1623941;87;25169;-80
2022/01/09 10:58:52;;;;;;;78.67;45.03;;;;;;;1.58;76.56;99583.13;1619885;87;27465;-80
2022/01/09 11:01:31;;;;;;;77.50;37.98;;;;;;;1.60;76.47;99580.32;1622686;88;26279;-80
2022/01/09 11:04:01;;;;;;;74.70;37.93;;;;;;;1.62;76.31;99579.19;1621071;87;26042;-80
2022/01/09 11:06:31;;;;;;;72.80;36.63;;;;;;;1.64;76.21;99571.95;1599007;88;26051;-80
2022/01/09 11:09:00;;;;;;;73.47;39.48;;;;;;;1.66;76.19;99575.73;1625636;87;26052;-80
2022/01/09 11:13:55;;;;;;;82.08;43.87;;;;;;;1.66;76.03;99572.61;1623602;87;26549;-80
2022/01/09 11:16:34;;;;;;;69.10;39.15;;;;;;;1.68;75.96;99571.12;1623147;87;25850;-80
2022/01/09 11:19:13;;;;;;;67.08;35.88;;;;;;;1.70;75.97;99577.08;1622888;87;25948;-80
2022/01/09 11:21:55;;;;;;;76.90;39.58;;;;;;;1.72;75.98;99572.47;1616733;87;25879;-80
2022/01/09 11:24:56;;;;;;;73.85;37.50;;;;;;;1.74;75.82;99575.78;1619448;87;28413;-80
2022/01/09 11:28:10;;;;;;;72.10;37.95;;;;;;;1.75;75.88;99573.50;1619944;87;25992;-80